createdAt,value
2023-04-30T00:00:41.217Z,100453.03
2023-04-30T00:01:44.077Z,100458.16
2023-04-30T00:02:48.051Z,100461.25
2023-04-30T00:03:50.934Z,100463.34
2023-04-30T00:04:53.815Z,100464.91
2023-04-30T00:05:56.795Z,100464.13
2023-04-30T00:07:01.470Z,100460.59
2023-04-30T00:08:04.243Z,100465.84
2023-04-30T00:09:08.175Z,100467.47
2023-04-30T00:10:11.473Z,100462.38
2023-04-30T00:11:13.237Z,100468.47
2023-04-30T00:12:16.037Z,100465.25
2023-04-30T00:13:18.917Z,100458.75
2023-04-30T00:14:21.244Z,100470.09
2023-04-30T00:15:23.637Z,100466.28
2023-04-30T00:16:26.234Z,100466.28
2023-04-30T00:17:29.048Z,100469.81
2023-04-30T00:18:31.545Z,100466.13
2023-04-30T00:19:33.904Z,100471.63
2023-04-30T00:20:37.225Z,100474.03
2023-04-30T00:21:39.862Z,100472.25
2023-04-30T00:22:46.934Z,100472.00
2023-04-30T00:23:49.321Z,100470.22
2023-04-30T00:24:53.370Z,100472.84
2023-04-30T00:25:56.270Z,100479.19
2023-04-30T00:26:59.184Z,100473.91
2023-04-30T00:28:01.818Z,100481.31
2023-04-30T00:29:05.171Z,100481.81
2023-04-30T00:30:08.560Z,100489.19
2023-04-30T00:31:11.448Z,100484.00
2023-04-30T00:32:14.572Z,100486.63
2023-04-30T00:33:17.992Z,100486.63
2023-04-30T00:34:21.002Z,100486.63
2023-04-30T00:35:23.793Z,100479.97
2023-04-30T00:36:27.047Z,100488.66
2023-04-30T00:37:34.682Z,100490.00
2023-04-30T00:38:37.655Z,100485.44
2023-04-30T00:39:40.927Z,100490.25
2023-04-30T00:40:44.494Z,100483.28
2023-04-30T00:41:47.606Z,100487.03
2023-04-30T00:42:56.058Z,100495.06
2023-04-30T00:43:59.049Z,100495.75
2023-04-30T00:45:05.931Z,100485.66
2023-04-30T00:46:11.056Z,100487.25
2023-04-30T00:47:18.981Z,100487.34
2023-04-30T00:48:22.028Z,100488.00
2023-04-30T00:49:25.177Z,100486.75
2023-04-30T00:50:29.022Z,100484.00
2023-04-30T00:51:33.388Z,100492.72
2023-04-30T00:53:27.830Z,100489.22
2023-04-30T00:54:32.046Z,100481.22
2023-04-30T00:55:34.770Z,100489.31
2023-04-30T00:56:37.971Z,100488.97
2023-04-30T00:58:07.846Z,100483.13
2023-04-30T00:59:12.206Z,100499.56
2023-04-30T01:00:16.097Z,100491.66
2023-04-30T01:01:19.528Z,100492.94
2023-04-30T01:02:55.308Z,100491.66
2023-04-30T01:03:58.443Z,100492.13
2023-04-30T01:05:01.617Z,100490.41
2023-04-30T01:06:06.396Z,100489.41
2023-04-30T01:07:10.996Z,100493.53
2023-04-30T01:08:13.811Z,100484.66
2023-04-30T01:09:17.240Z,100484.19
2023-04-30T01:10:31.182Z,100489.78
2023-04-30T01:12:14.976Z,100487.41
2023-04-30T01:13:30.289Z,100500.38
2023-04-30T01:14:52.188Z,100494.88
2023-04-30T01:16:00.881Z,100495.53
2023-04-30T01:17:13.859Z,100494.41
2023-04-30T01:18:42.368Z,100498.19
2023-04-30T01:19:46.599Z,100490.06
2023-04-30T01:20:54.713Z,100495.47
2023-04-30T01:22:01.779Z,100496.66
2023-04-30T01:23:42.324Z,100484.72
2023-04-30T01:25:15.543Z,100498.63
2023-04-30T01:26:47.530Z,100490.75
2023-04-30T01:28:08.477Z,100496.09
2023-04-30T01:29:14.639Z,100495.28
2023-04-30T01:30:19.481Z,100502.50
2023-04-30T01:31:24.639Z,100501.25
2023-04-30T01:32:29.386Z,100502.03
2023-04-30T01:33:32.532Z,100500.63
2023-04-30T01:34:35.285Z,100500.91
2023-04-30T01:35:53.798Z,100506.38
2023-04-30T01:37:22.731Z,100497.66
2023-04-30T01:38:49.670Z,100498.09
2023-04-30T01:40:10.092Z,100497.44
2023-04-30T01:41:41.487Z,100499.03
2023-04-30T01:43:11.291Z,100489.81
2023-04-30T01:44:43.348Z,100494.13
2023-04-30T01:46:07.185Z,100503.31
2023-04-30T01:47:20.542Z,100501.09
2023-04-30T01:48:44.924Z,100502.25
2023-04-30T01:50:03.779Z,100506.00
2023-04-30T01:51:47.341Z,100496.66
2023-04-30T01:52:57.349Z,100503.06
2023-04-30T01:54:06.299Z,100499.19
2023-04-30T01:55:14.233Z,100499.19
2023-04-30T01:56:24.128Z,100502.25
2023-04-30T01:57:35.011Z,100499.38
2023-04-30T01:58:40.786Z,100502.78
2023-04-30T01:59:44.437Z,100500.53
2023-04-30T02:00:47.148Z,100499.56
2023-04-30T02:01:50.423Z,100494.75
2023-04-30T02:02:56.579Z,100503.47
2023-04-30T02:04:00.276Z,100493.94
2023-04-30T02:05:04.600Z,100489.94
2023-04-30T02:06:08.680Z,100489.81
2023-04-30T02:07:30.343Z,100492.53
2023-04-30T02:08:33.594Z,100489.94
2023-04-30T02:09:38.595Z,100494.50
2023-04-30T02:10:41.814Z,100490.63
2023-04-30T02:11:45.513Z,100482.06
2023-04-30T02:12:51.526Z,100485.28
2023-04-30T02:13:54.199Z,100484.28
2023-04-30T02:14:57.601Z,100473.25
2023-04-30T02:16:00.259Z,100486.34
2023-04-30T02:17:02.412Z,100482.81
2023-04-30T02:18:04.985Z,100485.69
2023-04-30T02:19:07.470Z,100486.19
2023-04-30T02:20:11.707Z,100479.41
2023-04-30T02:21:14.587Z,100475.72
2023-04-30T02:22:17.881Z,100482.78
2023-04-30T02:23:22.096Z,100466.16
2023-04-30T02:24:25.412Z,100465.75
2023-04-30T02:25:30.487Z,100456.81
2023-04-30T02:26:33.993Z,100467.53
2023-04-30T02:28:27.094Z,100459.66
2023-04-30T02:29:31.002Z,100450.69
2023-04-30T02:30:35.211Z,100450.53
2023-04-30T02:31:38.547Z,100441.72
2023-04-30T02:32:46.049Z,100441.16
2023-04-30T02:33:51.713Z,100439.50
2023-04-30T02:34:56.381Z,100431.13
2023-04-30T02:36:01.059Z,100434.06
2023-04-30T02:37:04.349Z,100444.72
2023-04-30T02:38:12.166Z,100432.91
2023-04-30T02:39:16.084Z,100443.25
2023-04-30T02:40:20.987Z,100440.06
2023-04-30T02:41:24.490Z,100428.31
2023-04-30T02:42:55.230Z,100430.69
2023-04-30T02:43:58.247Z,100428.78
2023-04-30T02:45:01.125Z,100427.94
2023-04-30T02:46:06.987Z,100421.22
2023-04-30T02:47:09.972Z,100432.22
2023-04-30T02:48:43.880Z,100417.72
2023-04-30T02:49:46.764Z,100418.81
2023-04-30T02:50:49.924Z,100422.53
2023-04-30T02:51:52.807Z,100419.00
2023-04-30T02:53:01.048Z,100408.19
2023-04-30T02:54:03.785Z,100411.31
2023-04-30T02:55:07.449Z,100416.34
2023-04-30T02:56:11.646Z,100412.44
2023-04-30T02:57:14.719Z,100410.81
2023-04-30T02:58:20.280Z,100414.44
2023-04-30T02:59:24.208Z,100416.00
2023-04-30T03:00:27.269Z,100421.31
2023-04-30T03:01:30.181Z,100417.97
2023-04-30T03:02:35.155Z,100426.28
2023-04-30T03:03:38.188Z,100424.34
2023-04-30T03:04:42.362Z,100423.84
2023-04-30T03:05:45.621Z,100426.38
2023-04-30T03:06:48.379Z,100433.38
2023-04-30T03:07:54.065Z,100428.91
2023-04-30T03:08:57.206Z,100425.75
2023-04-30T03:10:01.212Z,100425.28
2023-04-30T03:11:04.222Z,100433.81
2023-04-30T03:12:07.034Z,100427.59
2023-04-30T03:13:12.001Z,100432.19
2023-04-30T03:14:16.841Z,100435.97
2023-04-30T03:15:19.491Z,100437.97
2023-04-30T03:16:22.975Z,100443.56
2023-04-30T03:17:26.670Z,100438.59
2023-04-30T03:18:31.511Z,100433.69
2023-04-30T03:19:34.546Z,100438.69
2023-04-30T03:20:40.265Z,100433.78
2023-04-30T03:21:43.217Z,100449.72
2023-04-30T03:22:50.823Z,100439.19
2023-04-30T03:23:53.520Z,100442.91
2023-04-30T03:24:56.486Z,100435.94
2023-04-30T03:25:59.964Z,100448.22
2023-04-30T03:27:03.823Z,100438.53
2023-04-30T03:28:09.089Z,100437.09
2023-04-30T03:29:12.432Z,100440.38
2023-04-30T03:30:16.500Z,100439.41
2023-04-30T03:31:19.625Z,100433.19
2023-04-30T03:32:24.815Z,100432.03
2023-04-30T03:33:33.383Z,100428.13
2023-04-30T03:34:36.532Z,100436.22
2023-04-30T03:35:39.388Z,100424.81
2023-04-30T03:36:44.503Z,100426.59
2023-04-30T03:38:18.066Z,100422.41
2023-04-30T03:39:21.051Z,100432.78
2023-04-30T03:40:26.011Z,100422.22
2023-04-30T03:41:29.132Z,100418.91
2023-04-30T03:42:31.728Z,100417.41
2023-04-30T03:43:34.958Z,100411.63
2023-04-30T03:44:39.136Z,100412.56
2023-04-30T03:45:42.615Z,100415.63
2023-04-30T03:46:45.868Z,100410.78
2023-04-30T03:54:04.333Z,100406.66
2023-04-30T03:55:07.875Z,100400.94
2023-04-30T03:56:18.732Z,100399.59
2023-04-30T03:57:23.084Z,100398.97
2023-04-30T03:58:56.982Z,100391.50
2023-04-30T04:00:02.282Z,100387.88
2023-04-30T04:01:07.128Z,100390.75
2023-04-30T04:02:11.110Z,100395.50
2023-04-30T04:03:42.666Z,100399.09
2023-04-30T04:04:45.690Z,100393.38
2023-04-30T04:05:49.056Z,100391.59
2023-04-30T04:06:51.911Z,100390.53
2023-04-30T04:10:40.588Z,100384.97
2023-04-30T04:11:46.165Z,100380.00
2023-04-30T04:12:52.107Z,100389.56
2023-04-30T04:13:56.035Z,100393.28
2023-04-30T04:14:58.726Z,100392.13
2023-04-30T04:16:03.797Z,100388.47
2023-04-30T04:17:07.775Z,100389.47
2023-04-30T04:21:38.155Z,100382.19
2023-04-30T04:25:46.730Z,100380.03
2023-04-30T04:26:49.406Z,100379.22
2023-04-30T04:27:54.865Z,100386.78
2023-04-30T04:28:57.954Z,100385.09
2023-04-30T04:30:00.764Z,100378.22
2023-04-30T04:31:03.773Z,100376.78
2023-04-30T04:32:06.935Z,100380.00
2023-04-30T04:33:15.044Z,100380.00
2023-04-30T04:34:20.515Z,100383.22
2023-04-30T04:35:22.947Z,100387.94
2023-04-30T04:36:27.730Z,100379.63
2023-04-30T04:37:32.373Z,100379.22
2023-04-30T04:39:02.500Z,100381.56
2023-04-30T04:40:06.423Z,100381.94
2023-04-30T04:41:09.195Z,100368.63
2023-04-30T04:42:12.633Z,100374.19
2023-04-30T04:43:45.051Z,100376.75
2023-04-30T04:44:48.909Z,100369.66
2023-04-30T04:45:55.936Z,100372.09
2023-04-30T04:46:58.951Z,100375.22
2023-04-30T04:48:02.939Z,100380.44
2023-04-30T04:49:05.860Z,100376.88
2023-04-30T04:50:11.202Z,100376.84
2023-04-30T04:51:13.711Z,100377.59
2023-04-30T04:52:16.319Z,100382.38
2023-04-30T04:53:21.356Z,100369.63
2023-04-30T04:54:24.004Z,100367.59
2023-04-30T04:55:26.760Z,100369.22
2023-04-30T04:56:29.142Z,100371.19
2023-04-30T04:57:36.908Z,100376.00
2023-04-30T04:58:43.435Z,100379.25
2023-04-30T04:59:46.170Z,100375.28
2023-04-30T05:00:48.401Z,100379.19
2023-04-30T05:01:51.067Z,100373.63
2023-04-30T05:02:53.700Z,100373.50
2023-04-30T05:03:57.969Z,100372.75
2023-04-30T05:06:42.802Z,100372.81
2023-04-30T05:07:45.369Z,100374.63
2023-04-30T05:09:16.908Z,100371.66
2023-04-30T05:10:19.236Z,100362.31
2023-04-30T05:11:23.227Z,100368.28
2023-04-30T05:12:27.250Z,100353.38
2023-04-30T05:15:08.404Z,100355.81
2023-04-30T05:16:10.728Z,100351.25
2023-04-30T05:17:13.148Z,100358.97
2023-04-30T05:18:15.232Z,100354.63
2023-04-30T05:19:17.336Z,100355.41
2023-04-30T05:20:19.184Z,100360.41
2023-04-30T05:21:21.083Z,100357.19
2023-04-30T05:22:23.131Z,100350.31
2023-04-30T05:23:25.063Z,100360.19
2023-04-30T05:24:28.295Z,100351.25
2023-04-30T05:25:30.506Z,100348.00
2023-04-30T05:26:32.548Z,100351.81
2023-04-30T05:27:34.450Z,100350.41
2023-04-30T05:28:36.530Z,100343.13
2023-04-30T05:29:38.807Z,100345.13
2023-04-30T05:30:40.739Z,100345.88
2023-04-30T05:31:42.624Z,100347.88
2023-04-30T05:32:50.829Z,100348.59
2023-04-30T05:33:53.164Z,100349.50
2023-04-30T05:34:55.746Z,100342.56
2023-04-30T05:35:57.648Z,100345.59
2023-04-30T05:36:59.573Z,100350.50
2023-04-30T05:38:03.139Z,100350.66
2023-04-30T05:39:05.073Z,100343.91
2023-04-30T05:40:07.549Z,100345.56
2023-04-30T05:41:12.542Z,100338.53
2023-04-30T05:42:14.662Z,100344.09
2023-04-30T05:43:16.996Z,100348.78
2023-04-30T05:44:18.903Z,100342.38
2023-04-30T05:45:20.881Z,100342.44
2023-04-30T05:46:22.912Z,100343.19
2023-04-30T05:47:24.978Z,100335.59
2023-04-30T05:48:27.611Z,100352.06
2023-04-30T05:49:29.534Z,100340.34
2023-04-30T05:50:31.675Z,100341.44
2023-04-30T05:51:33.647Z,100339.66
2023-04-30T05:52:35.784Z,100341.28
2023-04-30T05:53:37.963Z,100335.84
2023-04-30T05:54:39.719Z,100339.56
2023-04-30T05:55:42.330Z,100343.03
2023-04-30T05:56:44.349Z,100347.56
2023-04-30T05:57:46.512Z,100352.91
2023-04-30T05:58:48.810Z,100353.19
2023-04-30T05:59:50.731Z,100351.28
2023-04-30T06:00:53.562Z,100349.78
2023-04-30T06:01:55.653Z,100350.81
2023-04-30T06:02:57.495Z,100358.09
2023-04-30T06:04:01.340Z,100355.38
2023-04-30T06:05:03.698Z,100347.00
2023-04-30T06:06:06.096Z,100356.44
2023-04-30T06:07:08.147Z,100356.41
2023-04-30T06:08:10.119Z,100362.31
2023-04-30T06:09:11.908Z,100357.38
2023-04-30T06:10:13.827Z,100357.31
2023-04-30T06:11:15.864Z,100359.06
2023-04-30T06:12:17.691Z,100367.81
2023-04-30T06:13:23.019Z,100374.56
2023-04-30T06:14:25.008Z,100366.16
2023-04-30T06:15:27.193Z,100363.84
2023-04-30T06:16:29.689Z,100365.25
2023-04-30T06:17:31.711Z,100365.72
2023-04-30T06:18:34.375Z,100369.06
2023-04-30T06:19:36.430Z,100363.34
2023-04-30T06:20:38.390Z,100360.25
2023-04-30T06:21:40.433Z,100364.16
2023-04-30T06:22:43.557Z,100354.06
2023-04-30T06:23:46.638Z,100357.81
2023-04-30T06:24:48.513Z,100351.72
2023-04-30T06:25:50.336Z,100354.44
2023-04-30T06:26:52.480Z,100355.94
2023-04-30T06:27:54.527Z,100348.75
2023-04-30T06:28:58.132Z,100354.25
2023-04-30T06:30:01.253Z,100350.31
2023-04-30T06:31:04.070Z,100348.94
2023-04-30T06:32:08.542Z,100353.50
2023-04-30T06:33:10.960Z,100351.81
2023-04-30T06:34:14.140Z,100351.06
2023-04-30T06:35:16.120Z,100356.28
2023-04-30T06:36:18.905Z,100344.59
2023-04-30T06:37:21.069Z,100353.34
2023-04-30T06:38:23.200Z,100359.16
2023-04-30T06:39:25.568Z,100347.72
2023-04-30T06:40:27.680Z,100350.22
2023-04-30T06:41:29.678Z,100351.22
2023-04-30T06:42:35.371Z,100344.09
2023-04-30T06:43:38.409Z,100345.47
2023-04-30T06:44:41.585Z,100348.84
2023-04-30T06:45:44.030Z,100343.16
2023-04-30T06:46:46.019Z,100342.13
2023-04-30T06:47:50.530Z,100345.44
2023-04-30T06:48:52.805Z,100351.34
2023-04-30T06:49:58.918Z,100344.75
2023-04-30T06:51:03.357Z,100339.31
2023-04-30T06:52:05.454Z,100345.75
2023-04-30T06:53:08.384Z,100344.88
2023-04-30T06:54:32.820Z,100332.47
2023-04-30T06:55:36.778Z,100332.28
2023-04-30T06:56:40.098Z,100336.59
2023-04-30T07:00:23.154Z,100340.69
2023-04-30T07:01:26.993Z,100315.03
2023-04-30T07:02:37.720Z,100328.25
2023-04-30T07:06:27.558Z,100317.81
2023-04-30T07:08:50.967Z,100325.94
2023-04-30T07:10:18.916Z,100325.34
2023-04-30T07:11:20.919Z,100309.47
2023-04-30T07:12:23.706Z,100321.38
2023-04-30T07:13:26.332Z,100312.69
2023-04-30T07:15:05.309Z,100323.81
2023-04-30T07:16:44.308Z,100298.72
2023-04-30T07:17:47.085Z,100293.63
2023-04-30T07:22:46.363Z,100292.72
2023-04-30T12:45:57.206Z,99919.53
2023-04-30T14:27:52.733Z,99765.09
2023-04-30T14:29:14.781Z,99756.00
2023-04-30T14:31:24.704Z,99758.34
2023-04-30T14:33:18.407Z,99759.19
2023-04-30T14:35:55.565Z,99763.91
2023-04-30T14:52:10.017Z,99711.28
2023-04-30T14:54:25.772Z,99697.06
2023-04-30T14:59:15.454Z,99695.84
2023-04-30T15:03:50.377Z,99694.69
2023-04-30T15:05:28.397Z,99690.72
2023-04-30T15:06:34.021Z,99686.78
2023-04-30T15:07:40.084Z,99698.25
2023-04-30T15:08:44.660Z,99693.09
2023-04-30T15:09:56.326Z,99681.22
2023-04-30T15:13:11.869Z,99678.06
2023-04-30T15:14:26.134Z,99686.78
2023-04-30T15:16:26.915Z,99682.03
2023-04-30T15:17:30.092Z,99689.16
2023-04-30T15:18:35.441Z,99685.19
2023-04-30T15:19:40.657Z,99689.16
2023-04-30T15:21:34.352Z,99683.59
2023-04-30T15:22:37.407Z,99688.75
2023-04-30T15:23:41.300Z,99679.25
2023-04-30T15:24:44.889Z,99684.38
2023-04-30T15:25:49.579Z,99684.38
2023-04-30T15:26:54.825Z,99673.69
2023-04-30T15:37:35.515Z,99639.66
2023-04-30T15:39:07.287Z,99628.97
2023-04-30T15:41:01.715Z,99624.22
2023-04-30T15:42:09.651Z,99620.28
2023-04-30T15:43:15.608Z,99621.09
2023-04-30T15:44:20.825Z,99614.75
2023-04-30T15:46:44.457Z,99626.22
2023-04-30T15:47:48.684Z,99616.34
2023-04-30T15:48:54.429Z,99615.53
2023-04-30T15:50:01.852Z,99623.44
2023-04-30T15:51:09.425Z,99614.34
2023-04-30T15:52:13.907Z,99615.53
2023-04-30T15:53:16.920Z,99609.63
2023-04-30T15:56:05.962Z,99613.16
2023-04-30T15:57:09.558Z,99620.28
2023-04-30T15:58:13.909Z,99619.88
2023-04-30T15:59:19.566Z,99603.25
2023-04-30T16:01:16.479Z,99613.16
2023-04-30T16:02:20.580Z,99605.25
2023-04-30T16:03:26.875Z,99603.66
2023-04-30T16:04:30.127Z,99598.91
2023-04-30T16:05:35.488Z,99600.50
2023-04-30T16:06:39.019Z,99594.94
2023-04-30T16:07:47.589Z,99597.31
2023-04-30T16:08:54.729Z,99591.00
2023-04-30T16:10:02.779Z,99588.63
2023-04-30T16:11:15.759Z,99589.41
2023-04-30T16:13:08.262Z,99588.66
2023-04-30T16:14:14.102Z,99590.22
2023-04-30T16:15:17.970Z,99575.22
2023-04-30T16:16:20.044Z,99583.50
2023-04-30T16:17:22.439Z,99581.94
2023-04-30T16:18:25.576Z,99581.53
2023-04-30T16:19:28.754Z,99574.03
2023-04-30T16:20:32.467Z,99572.84
2023-04-30T16:21:36.628Z,99575.63
2023-04-30T16:22:39.342Z,99573.63
2023-04-30T16:23:41.579Z,99570.50
2023-04-30T16:24:44.499Z,99571.28
2023-04-30T16:25:47.071Z,99563.78
2023-04-30T16:26:50.935Z,99570.50
2023-04-30T16:27:55.042Z,99557.06
2023-04-30T16:29:02.960Z,99562.97
2023-04-30T16:30:09.809Z,99565.38
2023-04-30T16:31:51.496Z,99546.38
2023-04-30T16:33:02.352Z,99548.78
2023-04-30T16:51:10.120Z,99528.59
2023-04-30T16:52:12.650Z,99542.03
2023-04-30T16:53:14.420Z,99540.06
2023-04-30T16:54:16.537Z,99546.00
2023-04-30T16:55:22.672Z,99542.03
2023-04-30T16:56:24.947Z,99561.00
2023-04-30T16:57:26.892Z,99539.25
2023-04-30T16:58:28.960Z,99549.13
2023-04-30T16:59:31.138Z,99545.97
2023-04-30T17:00:34.910Z,99545.16
2023-04-30T17:01:37.007Z,99553.88
2023-04-30T17:02:41.003Z,99555.84
2023-04-30T17:03:49.581Z,99557.81
2023-04-30T17:08:06.772Z,99552.94
2023-04-30T17:09:18.923Z,99561.59
2023-04-30T17:10:32.224Z,99567.56
2023-04-30T17:11:47.251Z,99564.78
2023-04-30T17:13:08.217Z,99571.47
2023-04-30T17:14:41.213Z,99573.41
2023-04-30T17:18:59.477Z,99569.84
2023-04-30T17:20:56.732Z,99565.88
2023-04-30T17:26:01.360Z,99564.66
2023-04-30T17:27:13.749Z,99560.72
2023-04-30T17:28:31.122Z,99566.97
2023-04-30T17:29:56.419Z,99568.91
2023-04-30T17:35:13.334Z,99567.66
2023-04-30T17:39:38.912Z,99557.25
2023-04-30T17:43:07.743Z,99547.78
2023-04-30T17:44:18.032Z,99556.56
2023-04-30T17:45:28.565Z,99556.47
2023-04-30T17:46:33.318Z,99551.72
2023-04-30T17:48:15.800Z,99557.91
2023-04-30T17:49:31.158Z,99547.69
2023-04-30T17:52:43.936Z,99547.66
2023-04-30T17:53:48.277Z,99543.66
2023-04-30T17:54:57.054Z,99538.94
2023-04-30T17:57:27.309Z,99532.19
2023-04-30T17:59:00.693Z,99531.09
2023-04-30T18:04:52.397Z,99522.34
2023-04-30T18:26:20.936Z,99501.72
2023-04-30T18:28:27.575Z,99493.81
2023-04-30T18:36:14.739Z,99490.66
2023-04-30T18:52:12.978Z,99491.31
2023-04-30T18:53:19.495Z,99489.78
2023-04-30T18:54:26.029Z,99491.38
2023-04-30T18:55:35.399Z,99490.31
2023-04-30T18:57:04.280Z,99498.66
2023-04-30T18:58:11.222Z,99497.84
2023-04-30T18:59:14.653Z,99491.88
2023-04-30T19:00:16.885Z,99488.25
2023-04-30T19:01:24.510Z,99489.03
2023-04-30T19:02:26.649Z,99487.44
2023-04-30T19:03:30.391Z,99479.16
2023-04-30T19:04:32.542Z,99474.00
2023-04-30T19:05:35.839Z,99476.06
2023-04-30T19:06:38.064Z,99474.09
2023-04-30T19:07:40.120Z,99474.16
2023-04-30T19:08:43.657Z,99474.88
2023-04-30T19:09:50.409Z,99467.00
2023-04-30T19:10:53.313Z,99466.97
2023-04-30T19:11:55.360Z,99466.69
2023-04-30T19:12:57.335Z,99458.38
2023-04-30T19:13:59.656Z,99460.38
2023-04-30T19:15:12.862Z,99450.84
2023-04-30T19:16:17.342Z,99454.78
2023-04-30T19:17:24.588Z,99446.88
2023-04-30T19:18:27.733Z,99452.88
2023-04-30T19:19:31.334Z,99451.19
2023-04-30T19:20:36.334Z,99447.28
2023-04-30T19:21:39.499Z,99447.31
2023-04-30T19:22:43.844Z,99433.13
2023-04-30T19:23:51.595Z,99440.97
2023-04-30T19:24:58.293Z,99431.09
2023-04-30T19:26:29.502Z,99433.06
2023-04-30T19:27:42.131Z,99433.97
2023-04-30T19:28:48.267Z,99422.88
2023-04-30T19:29:52.919Z,99424.84
2023-04-30T19:31:14.771Z,99417.25
2023-04-30T19:32:28.638Z,99416.84
2023-04-30T19:33:39.734Z,99415.25
2023-04-30T19:34:43.261Z,99412.97
2023-04-30T19:35:57.607Z,99411.34
2023-04-30T19:37:00.887Z,99413.34
2023-04-30T19:38:06.242Z,99410.19
2023-04-30T19:39:11.025Z,99414.09
2023-04-30T19:40:14.670Z,99413.38
2023-04-30T19:41:17.899Z,99414.78
2023-04-30T19:42:19.987Z,99410.56
2023-04-30T19:43:56.770Z,99404.63
2023-04-30T19:45:01.369Z,99398.38
2023-04-30T19:46:05.163Z,99404.63
2023-04-30T19:47:08.657Z,99398.41
2023-04-30T19:48:10.788Z,99405.47
2023-04-30T19:49:15.512Z,99391.31
2023-04-30T19:50:17.738Z,99398.41
2023-04-30T19:51:22.205Z,99394.84
2023-04-30T19:52:24.479Z,99390.25
2023-04-30T19:53:27.690Z,99398.56
2023-04-30T19:54:44.342Z,99400.16
2023-04-30T19:55:49.166Z,99402.06
2023-04-30T19:56:53.612Z,99402.41
2023-04-30T19:57:56.152Z,99400.00
2023-04-30T19:59:01.427Z,99389.44
2023-04-30T20:00:08.667Z,99396.03
2023-04-30T20:01:25.830Z,99385.53
2023-04-30T20:02:30.365Z,99390.50
2023-04-30T20:03:37.212Z,99386.59
2023-04-30T20:04:41.713Z,99383.41
2023-04-30T20:05:54.955Z,99387.38
2023-04-30T20:07:03.264Z,99381.06
2023-04-30T20:08:09.150Z,99374.75
2023-04-30T20:09:22.115Z,99377.88
2023-04-30T20:10:33.335Z,99373.13
2023-04-30T20:13:37.933Z,99366.03
2023-04-30T20:14:52.251Z,99364.47
2023-04-30T20:16:19.380Z,99360.19
2023-04-30T20:19:26.060Z,99359.84
2023-04-30T20:20:31.098Z,99357.44
2023-04-30T20:21:39.468Z,99348.81
2023-04-30T20:22:42.950Z,99342.47
2023-04-30T20:23:46.504Z,99349.91
2023-04-30T20:24:50.734Z,99343.31
2023-04-30T20:25:58.148Z,99340.50
2023-04-30T20:27:07.450Z,99336.16
2023-04-30T20:28:12.533Z,99329.47
2023-04-30T20:29:18.581Z,99329.91
2023-04-30T20:30:34.299Z,99321.97
2023-04-30T20:31:38.325Z,99324.38
2023-04-30T20:32:45.095Z,99326.28
2023-04-30T20:33:48.928Z,99319.13
2023-04-30T20:34:56.067Z,99314.09
2023-04-30T20:36:02.847Z,99322.38
2023-04-30T20:37:08.541Z,99318.84
2023-04-30T20:38:14.501Z,99309.06
2023-04-30T20:39:17.552Z,99315.00
2023-04-30T20:40:21.126Z,99307.47
2023-04-30T20:41:29.711Z,99306.22
2023-04-30T20:42:32.729Z,99309.03
2023-04-30T20:43:46.496Z,99315.03
2023-04-30T20:44:52.361Z,99314.19
2023-04-30T20:46:00.037Z,99319.69
2023-04-30T20:47:05.642Z,99318.88
2023-04-30T20:48:09.416Z,99307.16
2023-04-30T20:49:17.749Z,99305.19
2023-04-30T20:50:24.906Z,99302.81
2023-04-30T20:51:35.303Z,99302.41
2023-04-30T20:52:42.884Z,99295.63
2023-04-30T20:53:47.621Z,99288.78
2023-04-30T20:54:59.650Z,99297.56
2023-04-30T20:56:05.449Z,99290.53
2023-04-30T20:57:14.364Z,99291.78
2023-04-30T20:58:21.357Z,99286.66
2023-04-30T20:59:26.886Z,99285.09
2023-04-30T21:00:31.289Z,99286.56
2023-04-30T21:01:36.109Z,99284.13
2023-04-30T21:02:39.656Z,99272.00
2023-04-30T21:03:44.182Z,99281.94
2023-04-30T21:04:48.503Z,99283.13
2023-04-30T21:05:57.417Z,99266.53
2023-04-30T21:07:08.508Z,99279.56
2023-04-30T21:08:14.944Z,99266.56
2023-04-30T21:09:18.963Z,99268.56
2023-04-30T21:10:24.210Z,99264.94
2023-04-30T21:11:34.434Z,99250.81
2023-04-30T21:12:37.350Z,99257.06
2023-04-30T21:13:42.236Z,99259.03
2023-04-30T21:14:45.471Z,99261.38
2023-04-30T21:15:49.200Z,99259.06
2023-04-30T21:17:00.303Z,99261.50
2023-04-30T21:18:06.481Z,99263.81
2023-04-30T21:19:33.159Z,99264.56
2023-04-30T21:20:36.407Z,99257.88
2023-04-30T21:21:43.262Z,99259.47
2023-04-30T21:22:49.612Z,99258.59
2023-04-30T21:23:58.166Z,99257.47
2023-04-30T21:25:04.359Z,99257.53
2023-04-30T21:26:13.073Z,99262.16
2023-04-30T21:27:27.935Z,99260.56
2023-04-30T21:28:35.189Z,99266.47
2023-04-30T21:29:47.884Z,99264.56
2023-04-30T21:30:54.378Z,99261.41
2023-04-30T21:32:06.429Z,99263.38
2023-04-30T21:33:12.511Z,99256.00
2023-04-30T21:34:19.052Z,99263.91
2023-04-30T21:35:24.104Z,99257.59
2023-04-30T21:36:31.264Z,99248.16
2023-04-30T21:37:34.986Z,99237.06
2023-04-30T21:38:45.284Z,99221.38
2023-04-30T21:39:50.033Z,99224.47
2023-04-30T21:40:53.395Z,99217.41
2023-04-30T21:41:59.276Z,99214.31
2023-04-30T21:43:06.637Z,99220.56
2023-04-30T21:44:12.676Z,99225.69
2023-04-30T21:45:19.179Z,99239.47
2023-04-30T21:46:24.699Z,99244.22
2023-04-30T21:47:32.311Z,99247.31
2023-04-30T21:48:41.295Z,99252.03
2023-04-30T21:49:45.705Z,99255.94
2023-04-30T21:50:53.263Z,99255.94
2023-04-30T21:51:59.566Z,99248.84
2023-04-30T21:53:04.085Z,99263.06
2023-04-30T21:54:08.576Z,99249.69
2023-04-30T21:55:14.358Z,99246.53
2023-04-30T21:56:21.001Z,99259.09
2023-04-30T21:57:28.236Z,99259.16
2023-04-30T21:58:31.538Z,99254.47
2023-04-30T21:59:42.225Z,99259.19
2023-04-30T22:00:47.372Z,99256.06
2023-04-30T22:01:56.022Z,99253.75
2023-04-30T22:02:59.208Z,99250.19
2023-04-30T22:04:08.943Z,99249.00
2023-04-30T22:05:16.636Z,99236.38
2023-04-30T22:06:27.843Z,99240.31
2023-04-30T22:07:35.722Z,99236.41
2023-04-30T22:08:40.375Z,99244.28
2023-04-30T22:09:45.322Z,99249.81
2023-04-30T22:10:50.471Z,99249.81
2023-04-30T22:11:57.343Z,99254.50
2023-04-30T22:13:01.812Z,99260.03
2023-04-30T22:14:05.092Z,99263.19
2023-04-30T22:15:09.451Z,99253.75
2023-04-30T22:16:16.298Z,99256.88
2023-04-30T22:17:21.058Z,99256.09
2023-04-30T22:18:24.759Z,99256.53
2023-04-30T22:19:28.998Z,99256.13
2023-04-30T22:20:52.405Z,99245.09
2023-04-30T22:22:01.387Z,99245.88
2023-04-30T22:23:04.822Z,99238.78
2023-04-30T22:24:08.074Z,99238.00
2023-04-30T22:25:11.519Z,99235.63
2023-04-30T22:26:15.758Z,99234.06
2023-04-30T22:27:19.454Z,99230.13
2023-04-30T22:28:54.548Z,99240.38
2023-04-30T22:29:59.107Z,99233.63
2023-04-30T22:31:34.348Z,99234.03
2023-04-30T22:32:42.728Z,99235.56
2023-04-30T22:33:46.670Z,99232.47
2023-04-30T22:34:50.802Z,99234.44
2023-04-30T22:35:56.237Z,99234.06
2023-04-30T22:37:04.164Z,99231.69
2023-04-30T22:38:08.842Z,99227.72
2023-04-30T22:39:13.038Z,99222.59
2023-04-30T22:40:19.327Z,99222.56
2023-04-30T22:41:24.706Z,99214.72
2023-04-30T22:42:36.745Z,99224.59
2023-04-30T22:43:41.407Z,99217.50
2023-04-30T22:44:46.442Z,99215.13